createdAt,value
2022-11-07T05:13:41.939Z,6.75
2022-11-07T05:16:17.037Z,6.90
2022-11-07T05:18:46.408Z,6.89
2022-11-07T05:21:13.811Z,6.79
2022-11-07T05:23:41.027Z,7.02
2022-11-07T05:26:09.613Z,7.25
2022-11-07T05:28:39.737Z,7.36
2022-11-07T05:31:09.241Z,7.37
2022-11-07T05:33:36.655Z,7.44
2022-11-07T05:36:19.496Z,6.90
2022-11-07T05:38:49.851Z,6.79
2022-11-07T05:41:18.908Z,6.80
2022-11-07T05:43:47.445Z,6.86
2022-11-07T05:46:15.067Z,6.71
2022-11-07T05:48:42.411Z,6.68
2022-11-07T05:51:09.871Z,6.54
2022-11-07T05:53:38.023Z,6.70
2022-11-07T05:56:06.253Z,6.83
2022-11-07T05:58:33.594Z,6.95
2022-11-07T06:01:03.190Z,7.03
2022-11-07T06:03:31.572Z,6.90
2022-11-07T06:05:59.714Z,6.88
2022-11-07T06:08:27.400Z,7.07
2022-11-07T06:10:54.664Z,7.07
2022-11-07T06:13:21.853Z,6.80
2022-11-07T06:15:49.598Z,6.83
2022-11-07T06:18:19.937Z,7.12
2022-11-07T06:20:47.657Z,7.09
2022-11-07T06:23:16.204Z,7.04
2022-11-07T06:25:44.030Z,6.99
2022-11-07T06:28:13.422Z,7.06
2022-11-07T06:30:40.708Z,6.89
2022-11-07T06:33:12.495Z,6.86
2022-11-07T06:35:39.945Z,6.57
2022-11-07T06:38:12.785Z,6.46
2022-11-07T06:40:41.410Z,6.61
2022-11-07T06:43:12.599Z,6.80
2022-11-07T06:45:41.406Z,6.90
2022-11-07T06:48:09.864Z,7.08
2022-11-07T06:50:37.662Z,6.91
2022-11-07T06:53:11.049Z,7.04
2022-11-07T06:55:39.188Z,7.13
2022-11-07T06:58:06.826Z,6.91
2022-11-07T07:00:36.012Z,6.84
2022-11-07T07:03:05.109Z,6.76
2022-11-07T07:05:34.319Z,6.69
2022-11-07T07:08:02.763Z,6.54
2022-11-07T07:10:30.406Z,6.82
2022-11-07T07:12:57.776Z,6.87
2022-11-07T07:15:25.653Z,7.09
2022-11-07T07:17:52.917Z,7.01
2022-11-07T07:20:20.201Z,6.87
2022-11-07T07:22:51.655Z,7.13
2022-11-07T07:25:26.069Z,7.32
2022-11-07T07:27:54.390Z,7.36
2022-11-07T07:30:21.715Z,7.26
2022-11-07T07:32:49.014Z,7.19
2022-11-07T07:35:16.471Z,7.09
2022-11-07T07:37:43.774Z,7.45
2022-11-07T07:40:12.029Z,7.55
2022-11-07T07:42:43.427Z,7.54
2022-11-07T07:45:12.317Z,7.76
2022-11-07T07:47:40.333Z,7.69
2022-11-07T07:50:09.780Z,7.72
2022-11-07T07:52:37.970Z,7.74
2022-11-07T07:55:08.964Z,7.86
2022-11-07T07:57:41.614Z,8.11
2022-11-07T08:00:11.012Z,8.48
2022-11-07T08:02:44.063Z,8.10
2022-11-07T08:05:13.032Z,8.25
2022-11-07T08:07:48.176Z,8.07
2022-11-07T08:10:40.137Z,8.09
2022-11-07T08:13:04.483Z,8.70
2022-11-07T08:15:31.800Z,8.79
2022-11-07T08:18:02.164Z,8.67
2022-11-07T08:20:29.926Z,9.12
2022-11-07T08:23:08.665Z,9.13
2022-11-07T08:25:40.211Z,9.38
2022-11-07T08:28:08.673Z,9.04
2022-11-07T08:30:35.975Z,9.00
2022-11-07T08:33:03.938Z,9.22
2022-11-07T08:35:31.693Z,9.37
2022-11-07T08:37:59.291Z,9.43
2022-11-07T08:40:28.731Z,9.77
2022-11-07T08:43:00.550Z,9.81
2022-11-07T08:45:27.846Z,9.70
2022-11-07T08:47:59.687Z,10.03
2022-11-07T08:50:27.697Z,9.97
2022-11-07T08:53:01.215Z,10.12
2022-11-07T08:55:29.952Z,10.13
2022-11-07T08:58:02.812Z,10.17
2022-11-07T09:00:30.509Z,10.37
2022-11-07T09:05:53.384Z,10.35
2022-11-07T09:08:21.059Z,10.73
2022-11-07T09:10:48.992Z,10.23
2022-11-07T09:13:16.587Z,10.55
2022-11-07T09:15:50.377Z,10.52
2022-11-07T09:18:19.735Z,10.46
2022-11-07T09:20:47.546Z,10.59
2022-11-07T09:23:15.867Z,10.55
2022-11-07T09:25:43.892Z,10.84
2022-11-07T09:28:11.266Z,10.89
2022-11-07T09:30:38.943Z,10.50
2022-11-07T09:33:06.936Z,10.57
2022-11-07T09:35:34.951Z,10.84
2022-11-07T09:38:02.278Z,10.94
2022-11-07T09:40:42.615Z,11.27
2022-11-07T09:43:31.814Z,11.69
2022-11-07T09:46:09.628Z,11.93
2022-11-07T09:48:44.853Z,11.87
2022-11-07T09:51:27.794Z,11.79
2022-11-07T09:54:00.222Z,12.26
2022-11-07T09:56:31.044Z,11.64
2022-11-07T09:59:09.796Z,11.44
2022-11-07T10:01:41.802Z,11.96
2022-11-07T10:04:25.873Z,12.08
2022-11-07T10:07:09.691Z,12.11
2022-11-07T10:10:21.857Z,12.33
2022-11-07T10:13:27.852Z,12.13
2022-11-07T10:16:04.242Z,12.70
2022-11-07T10:18:50.687Z,12.62
2022-11-07T10:21:38.027Z,12.60
2022-11-07T10:24:29.020Z,12.38
2022-11-07T10:26:58.341Z,12.85
2022-11-07T10:29:33.987Z,12.64
2022-11-07T10:32:31.487Z,12.81
2022-11-07T10:35:26.914Z,13.11
2022-11-07T10:37:56.852Z,13.19
2022-11-07T10:40:28.643Z,13.39
2022-11-07T10:42:56.463Z,13.60
2022-11-07T10:45:24.990Z,13.74
2022-11-07T10:48:02.342Z,13.56
2022-11-07T10:50:30.642Z,13.52
2022-11-07T10:53:05.592Z,13.47
2022-11-07T10:55:44.009Z,13.68
2022-11-07T10:58:23.498Z,13.98
2022-11-07T11:01:04.519Z,14.29
2022-11-07T11:03:46.188Z,14.27
2022-11-07T11:06:30.157Z,14.12
2022-11-07T11:08:58.392Z,14.09
2022-11-07T11:11:32.256Z,13.95
2022-11-07T11:14:13.390Z,14.35
2022-11-07T11:16:43.029Z,14.61
2022-11-07T11:19:25.970Z,14.59
2022-11-07T11:21:57.185Z,14.47
2022-11-07T11:24:37.344Z,15.08
2022-11-07T11:27:13.754Z,15.48
2022-11-07T11:30:07.175Z,15.29
2022-11-07T11:32:38.384Z,15.27
2022-11-07T11:35:23.607Z,15.81
2022-11-07T11:37:59.119Z,15.40
2022-11-07T11:40:32.443Z,15.74
2022-11-07T11:43:07.806Z,16.31
2022-11-07T11:45:44.224Z,15.33
2022-11-07T11:48:30.059Z,16.40
2022-11-07T11:51:03.542Z,16.49
2022-11-07T11:53:31.175Z,15.87
2022-11-07T11:56:07.962Z,15.56
2022-11-07T11:58:47.809Z,16.26
2022-11-07T12:01:39.497Z,16.31
2022-11-07T12:04:19.284Z,16.10
2022-11-07T12:06:46.947Z,15.97
2022-11-07T12:09:28.490Z,15.81
2022-11-07T12:12:26.524Z,16.01
2022-11-07T12:15:32.240Z,15.82
2022-11-07T12:18:11.322Z,16.58
2022-11-07T12:20:47.870Z,16.12
2022-11-07T12:23:49.646Z,15.79
2022-11-07T12:26:36.331Z,16.45
2022-11-07T12:29:32.369Z,15.72
2022-11-07T12:32:13.420Z,16.35
2022-11-07T12:35:01.259Z,16.29
2022-11-07T12:37:57.204Z,16.59
2022-11-07T12:40:54.368Z,16.29
2022-11-07T12:43:50.256Z,16.33
2022-11-07T12:46:27.902Z,16.40
2022-11-07T12:49:04.931Z,16.49
2022-11-07T12:51:51.856Z,16.68
2022-11-07T12:54:40.051Z,17.02
2022-11-07T12:57:16.590Z,16.96
2022-11-07T12:59:51.080Z,16.71
2022-11-07T13:02:43.558Z,17.21
2022-11-07T13:05:29.669Z,17.00
2022-11-07T13:08:19.882Z,17.63
2022-11-07T13:10:58.241Z,18.34
2022-11-07T13:13:41.013Z,18.28
2022-11-07T13:16:25.999Z,17.55
2022-11-07T13:18:53.874Z,17.12
2022-11-07T13:21:22.249Z,17.71
2022-11-07T13:23:49.870Z,17.92
2022-11-07T13:26:46.348Z,17.55
2022-11-07T13:29:47.003Z,17.10
2022-11-07T13:32:15.941Z,16.85
2022-11-07T13:34:45.268Z,18.02
2022-11-07T13:37:18.852Z,17.89
2022-11-07T13:39:49.466Z,17.25
2022-11-07T13:42:18.921Z,17.88
2022-11-07T13:44:55.875Z,18.45
2022-11-07T13:47:32.886Z,18.72
2022-11-07T13:50:10.023Z,18.52
2022-11-07T13:52:54.400Z,18.25
2022-11-07T13:55:26.088Z,18.83
2022-11-07T13:58:01.914Z,18.05
2022-11-07T14:00:31.789Z,17.35
2022-11-07T14:02:59.720Z,17.81
2022-11-07T14:05:30.104Z,18.23
2022-11-07T14:08:04.738Z,17.95
2022-11-07T14:10:38.880Z,17.49
2022-11-07T14:13:08.110Z,17.58
2022-11-07T14:15:36.678Z,17.41
2022-11-07T14:18:20.908Z,17.15
2022-11-07T14:20:51.640Z,17.07
2022-11-07T14:23:22.639Z,17.09
2022-11-07T14:26:03.313Z,17.07
2022-11-07T14:28:36.102Z,17.14
2022-11-07T14:31:08.371Z,16.59
2022-11-07T14:33:35.691Z,16.43
2022-11-07T14:36:06.003Z,16.52
2022-11-07T14:38:33.332Z,16.83
2022-11-07T14:41:01.954Z,16.67
2022-11-07T14:43:31.056Z,16.05
2022-11-07T14:46:12.425Z,16.19
2022-11-07T14:48:52.791Z,15.97
2022-11-07T14:51:24.667Z,16.09
2022-11-07T14:54:06.864Z,16.05
2022-11-07T14:56:39.762Z,15.98
2022-11-07T14:59:13.879Z,15.89
2022-11-07T15:01:51.811Z,15.79
2022-11-07T15:04:39.721Z,15.70
2022-11-07T15:07:25.824Z,15.47
2022-11-07T15:09:55.006Z,15.39
2022-11-07T15:12:25.054Z,15.44
2022-11-07T15:15:21.970Z,15.65
2022-11-07T15:17:52.720Z,15.65
2022-11-07T15:20:32.878Z,15.56
2022-11-07T15:23:23.350Z,15.53
2022-11-07T15:26:06.613Z,15.43
2022-11-07T15:28:43.271Z,15.37
2022-11-07T15:31:23.947Z,15.33
2022-11-07T15:33:55.982Z,15.36
2022-11-07T15:36:23.710Z,15.46
2022-11-07T15:38:52.737Z,15.38
2022-11-07T15:41:20.247Z,15.23
2022-11-07T15:43:48.123Z,15.17
2022-11-07T15:46:38.020Z,14.80
2022-11-07T15:49:07.260Z,14.75
2022-11-07T15:51:35.015Z,14.71
2022-11-07T15:54:02.419Z,14.51
2022-11-07T15:56:30.371Z,14.30
2022-11-07T15:58:57.879Z,14.06
2022-11-07T16:01:25.300Z,14.04
2022-11-07T16:03:52.642Z,13.98
2022-11-07T16:06:30.513Z,13.97
2022-11-07T16:08:58.691Z,13.98
2022-11-07T16:11:25.906Z,13.96
2022-11-07T16:13:59.205Z,13.94
2022-11-07T16:16:37.384Z,14.08
2022-11-07T16:19:05.606Z,14.10
2022-11-07T16:21:33.810Z,14.02
2022-11-07T16:24:01.032Z,13.96
2022-11-07T16:26:30.337Z,14.09
2022-11-07T16:28:58.111Z,14.01
2022-11-07T16:31:25.912Z,14.06
2022-11-07T16:33:56.021Z,14.09
2022-11-07T16:36:28.476Z,14.05
2022-11-07T16:38:55.809Z,13.93
2022-11-07T16:41:23.992Z,13.81
2022-11-07T16:43:51.861Z,13.85
2022-11-07T16:46:21.803Z,13.98
2022-11-07T16:48:52.310Z,13.95
2022-11-07T16:51:23.622Z,13.82
2022-11-07T16:53:51.077Z,13.83
2022-11-07T16:56:29.346Z,13.91
2022-11-07T16:58:57.844Z,13.88
2022-11-07T17:01:26.084Z,13.93
2022-11-07T17:03:54.507Z,13.92
2022-11-07T17:06:31.719Z,13.81
2022-11-07T17:09:08.645Z,13.88
2022-11-07T17:11:40.401Z,13.68
2022-11-07T17:14:08.262Z,13.50
2022-11-07T17:16:36.705Z,13.59
2022-11-07T17:19:05.841Z,13.70
2022-11-07T17:21:40.671Z,13.75
2022-11-07T17:24:08.231Z,13.77
2022-11-07T17:26:37.567Z,13.43
2022-11-07T17:29:06.667Z,13.43
2022-11-07T17:31:34.310Z,13.63
2022-11-07T17:34:01.622Z,13.70
2022-11-07T17:36:37.206Z,13.64
2022-11-07T17:39:11.901Z,13.36
2022-11-07T17:41:40.810Z,13.29
2022-11-07T17:44:08.817Z,13.40
2022-11-07T17:46:39.969Z,13.64
2022-11-07T17:49:08.881Z,13.49
2022-11-07T17:51:36.425Z,13.50
2022-11-07T17:54:04.401Z,13.56
2022-11-07T17:56:33.270Z,13.56
2022-11-07T17:59:04.869Z,13.66
2022-11-07T18:01:37.394Z,13.53
2022-11-07T18:04:06.747Z,13.65
2022-11-07T18:06:36.757Z,13.74
2022-11-07T18:09:06.590Z,13.72
2022-11-07T18:11:35.302Z,13.62
2022-11-07T18:14:03.512Z,13.56
2022-11-07T18:16:33.340Z,13.38
2022-11-07T18:19:02.247Z,13.51
2022-11-07T18:21:32.031Z,13.47
2022-11-07T18:24:00.454Z,13.37
2022-11-07T18:26:30.643Z,13.41
2022-11-07T18:29:02.667Z,13.31
2022-11-07T18:31:30.327Z,13.22
2022-11-07T18:34:00.351Z,13.19
2022-11-07T18:36:30.579Z,13.13
2022-11-07T18:39:05.578Z,12.89
2022-11-07T18:41:33.135Z,13.06
2022-11-07T18:44:04.706Z,13.22
2022-11-07T18:46:33.434Z,13.28
2022-11-07T18:49:01.045Z,13.45
2022-11-07T18:51:28.970Z,13.51
2022-11-07T18:53:56.332Z,13.37
2022-11-07T18:56:23.636Z,13.10
2022-11-07T18:58:51.468Z,13.05
2022-11-07T19:01:22.191Z,13.24
2022-11-07T19:03:50.379Z,13.41
2022-11-07T19:06:19.688Z,13.28
2022-11-07T19:08:48.555Z,13.22
2022-11-07T19:11:19.553Z,13.11
2022-11-07T19:13:47.603Z,13.01
2022-11-07T19:16:17.549Z,13.05
2022-11-07T19:18:49.497Z,13.01
2022-11-07T19:21:20.267Z,12.87
2022-11-07T19:23:48.582Z,12.82
2022-11-07T19:26:19.025Z,12.79
2022-11-07T19:28:46.780Z,12.93
2022-11-07T19:31:14.436Z,12.95
2022-11-07T19:33:43.643Z,13.05
2022-11-07T19:36:23.597Z,12.89
2022-11-07T19:38:51.050Z,13.05
2022-11-07T19:41:18.632Z,13.05
2022-11-07T19:43:49.889Z,13.14
2022-11-07T19:46:21.260Z,13.19
2022-11-07T19:48:50.845Z,13.15
2022-11-07T19:51:22.615Z,13.02
2022-11-07T19:53:58.462Z,13.02
2022-11-07T19:56:29.860Z,13.03
2022-11-07T19:59:01.256Z,12.98
2022-11-07T20:01:31.791Z,12.98
2022-11-07T20:03:59.882Z,13.09
2022-11-07T20:06:37.897Z,13.10
2022-11-07T20:09:10.553Z,13.09
2022-11-07T20:11:38.057Z,12.96
2022-11-07T20:14:06.162Z,12.84
2022-11-07T20:16:34.847Z,12.96
2022-11-07T20:19:02.907Z,12.94
2022-11-07T20:21:33.774Z,12.99
2022-11-07T20:24:01.089Z,13.11
2022-11-07T20:26:31.325Z,13.08
2022-11-07T20:28:59.169Z,12.99
2022-11-07T20:31:30.322Z,12.91
2022-11-07T20:33:59.687Z,12.94
2022-11-07T20:36:28.430Z,12.90
2022-11-07T20:38:56.054Z,12.89
2022-11-07T20:41:24.444Z,12.89
2022-11-07T20:44:01.994Z,12.83
2022-11-07T20:46:31.492Z,12.88
2022-11-07T20:48:59.892Z,12.91
2022-11-07T20:51:28.283Z,12.78
2022-11-07T20:53:56.351Z,12.76
2022-11-07T20:56:25.203Z,12.82
2022-11-07T20:58:54.376Z,12.77
2022-11-07T21:01:24.913Z,12.79
2022-11-07T21:03:53.222Z,12.80
2022-11-07T21:06:20.993Z,12.82
2022-11-07T21:08:49.952Z,12.82
2022-11-07T21:11:18.255Z,12.90
2022-11-07T21:13:51.411Z,12.85
2022-11-07T21:16:24.285Z,12.85
2022-11-07T21:18:52.240Z,12.78
2022-11-07T21:21:25.111Z,12.80
2022-11-07T21:23:53.671Z,12.78
2022-11-07T21:26:27.667Z,12.77
2022-11-07T21:28:56.684Z,12.63
2022-11-07T21:31:28.434Z,12.67
2022-11-07T21:33:56.035Z,12.74
2022-11-07T21:36:26.219Z,12.74
2022-11-07T21:38:55.189Z,12.67
2022-11-07T21:41:23.106Z,12.60
2022-11-07T21:43:51.476Z,12.49
2022-11-07T21:46:23.870Z,12.22
2022-11-07T21:48:52.134Z,12.15
2022-11-07T21:51:26.323Z,12.27
2022-11-07T21:53:54.675Z,12.34
2022-11-07T21:56:30.764Z,12.41
2022-11-07T21:59:01.598Z,12.42
2022-11-07T22:01:29.927Z,12.37
2022-11-07T22:04:07.558Z,12.31
2022-11-07T22:06:38.266Z,12.27
2022-11-07T22:09:07.294Z,12.03
2022-11-07T22:11:34.863Z,12.12
2022-11-07T22:14:03.201Z,12.24
2022-11-07T22:16:31.415Z,12.17
2022-11-07T22:19:00.565Z,12.08
2022-11-07T22:21:27.927Z,12.15
2022-11-07T22:23:56.232Z,12.18
2022-11-07T22:26:25.898Z,12.17
2022-11-07T22:28:53.987Z,12.21
2022-11-07T22:31:28.568Z,12.20
2022-11-07T22:33:57.192Z,12.06
2022-11-07T22:36:25.270Z,11.47
2022-11-07T22:38:52.667Z,11.51
2022-11-07T22:41:22.776Z,11.62
2022-11-07T22:43:50.717Z,11.61
2022-11-07T22:46:21.535Z,11.71
2022-11-07T22:48:50.386Z,11.67
2022-11-07T22:51:23.900Z,11.68
2022-11-07T22:54:06.343Z,11.72
2022-11-07T22:56:36.096Z,11.73
2022-11-07T22:59:04.912Z,11.72
2022-11-07T23:01:36.236Z,11.74
2022-11-07T23:04:04.830Z,11.80
